BDR019 WADD-YBAS
Flight info
| Callsign | BDR019 |
|---|---|
| Flight time | N/A |
| Altitude | 33000 |
| Route | NYOMA G326 ONOXA A587 NIKOM/N0465F350 A587 AS |
| Aircraft | B738/M-SDE2E3FGHIRWXY/LB1 |
Departure
| Time | N/A |
|---|---|
| Airport | Denpasar I Gusti Ngurah Rai International Airport (WADD) |
Arrival
| Time | 2026-05-03 20:38 |
|---|---|
| Airport | Alice Springs Airport (YBAS) |
| Time | Latitude | Longitude | Altitude | Speed | Heading |
|---|---|---|---|---|---|
| 2026-05-03 20:15 | -22.33544 | 132.12572 | 33029 ft | 546 kts | 134° |
| 2026-05-03 20:15 | -22.36046 | 132.15642 | 32533 ft | 543 kts | 134° |
| 2026-05-03 20:15 | -22.38499 | 132.18653 | 32055 ft | 539 kts | 134° |
| 2026-05-03 20:15 | -22.40967 | 132.21683 | 31580 ft | 536 kts | 134° |
| 2026-05-03 20:16 | -22.43423 | 132.24701 | 31121 ft | 532 kts | 134° |
| 2026-05-03 20:16 | -22.45863 | 132.27698 | 30634 ft | 530 kts | 134° |
| 2026-05-03 20:16 | -22.48287 | 132.30679 | 30158 ft | 527 kts | 134° |
| 2026-05-03 20:16 | -22.50700 | 132.33648 | 29649 ft | 523 kts | 134° |
| 2026-05-03 20:17 | -22.53095 | 132.36597 | 29134 ft | 519 kts | 134° |
| 2026-05-03 20:17 | -22.55465 | 132.39518 | 28637 ft | 515 kts | 134° |
| 2026-05-03 20:17 | -22.57814 | 132.42413 | 28141 ft | 510 kts | 134° |
| 2026-05-03 20:17 | -22.60142 | 132.45286 | 27677 ft | 505 kts | 134° |
| 2026-05-03 20:18 | -22.62452 | 132.48136 | 27214 ft | 501 kts | 134° |
| 2026-05-03 20:18 | -22.64734 | 132.50954 | 26758 ft | 496 kts | 134° |
| 2026-05-03 20:18 | -22.66994 | 132.53746 | 26331 ft | 492 kts | 134° |
| 2026-05-03 20:18 | -22.69241 | 132.56523 | 25857 ft | 488 kts | 134° |
| 2026-05-03 20:19 | -22.71472 | 132.59281 | 25401 ft | 484 kts | 134° |
| 2026-05-03 20:19 | -22.73678 | 132.62011 | 24929 ft | 480 kts | 134° |
| 2026-05-03 20:19 | -22.75868 | 132.64721 | 24475 ft | 476 kts | 134° |
| 2026-05-03 20:19 | -22.78038 | 132.67410 | 24022 ft | 473 kts | 134° |
| 2026-05-03 20:20 | -22.80202 | 132.70091 | 23534 ft | 469 kts | 134° |
| 2026-05-03 20:20 | -22.82339 | 132.72740 | 23030 ft | 465 kts | 134° |
| 2026-05-03 20:20 | -22.84455 | 132.75366 | 22588 ft | 459 kts | 134° |
| 2026-05-03 20:20 | -22.86541 | 132.77956 | 22130 ft | 453 kts | 134° |
| 2026-05-03 20:21 | -22.88597 | 132.80510 | 21795 ft | 445 kts | 134° |
| 2026-05-03 20:21 | -22.90619 | 132.82982 | 21608 ft | 430 kts | 136° |
| 2026-05-03 20:21 | -22.92655 | 132.85250 | 21426 ft | 410 kts | 139° |
| 2026-05-03 20:21 | -22.94672 | 132.87377 | 20917 ft | 401 kts | 139° |
| 2026-05-03 20:22 | -22.96694 | 132.89470 | 20326 ft | 402 kts | 139° |
| 2026-05-03 20:22 | -22.98710 | 132.91558 | 19966 ft | 399 kts | 139° |
| 2026-05-03 20:22 | -23.00698 | 132.93633 | 19661 ft | 394 kts | 139° |
| 2026-05-03 20:22 | -23.02644 | 132.95682 | 19310 ft | 385 kts | 138° |
| 2026-05-03 20:23 | -23.04563 | 132.97712 | 18433 ft | 389 kts | 138° |
| 2026-05-03 20:23 | -23.06526 | 132.99793 | 17185 ft | 399 kts | 137° |
| 2026-05-03 20:23 | -23.08527 | 133.01921 | 16125 ft | 404 kts | 137° |
| 2026-05-03 20:23 | -23.10523 | 133.04050 | 15495 ft | 396 kts | 137° |
| 2026-05-03 20:24 | -23.12460 | 133.06120 | 15077 ft | 386 kts | 137° |
| 2026-05-03 20:24 | -23.14379 | 133.08171 | 14684 ft | 391 kts | 137° |
| 2026-05-03 20:24 | -23.16335 | 133.10259 | 14302 ft | 398 kts | 137° |
| 2026-05-03 20:24 | -23.18309 | 133.12368 | 13887 ft | 398 kts | 137° |
| 2026-05-03 20:25 | -23.20275 | 133.14470 | 13422 ft | 396 kts | 137° |
| 2026-05-03 20:25 | -23.22230 | 133.16563 | 13004 ft | 393 kts | 137° |
| 2026-05-03 20:25 | -23.24171 | 133.18641 | 12618 ft | 390 kts | 137° |
| 2026-05-03 20:25 | -23.26094 | 133.20700 | 12231 ft | 388 kts | 137° |
| 2026-05-03 20:26 | -23.28007 | 133.22749 | 11838 ft | 384 kts | 137° |
| 2026-05-03 20:26 | -23.29892 | 133.24770 | 11447 ft | 378 kts | 137° |
| 2026-05-03 20:26 | -23.31753 | 133.26765 | 11071 ft | 373 kts | 137° |
| 2026-05-03 20:26 | -23.33588 | 133.28733 | 10711 ft | 368 kts | 137° |
| 2026-05-03 20:27 | -23.35384 | 133.30661 | 10578 ft | 356 kts | 137° |
| 2026-05-03 20:27 | -23.37120 | 133.32525 | 10433 ft | 346 kts | 137° |
| 2026-05-03 20:27 | -23.38810 | 133.34340 | 10282 ft | 337 kts | 137° |
| 2026-05-03 20:27 | -23.40463 | 133.36115 | 10029 ft | 332 kts | 137° |
| 2026-05-03 20:28 | -23.42092 | 133.37865 | 9859 ft | 323 kts | 137° |
| 2026-05-03 20:28 | -23.43658 | 133.39549 | 9851 ft | 310 kts | 137° |
| 2026-05-03 20:28 | -23.45166 | 133.41171 | 9800 ft | 299 kts | 137° |
| 2026-05-03 20:28 | -23.46612 | 133.42726 | 9619 ft | 294 kts | 137° |
| 2026-05-03 20:29 | -23.48086 | 133.44309 | 9289 ft | 295 kts | 137° |
| 2026-05-03 20:29 | -23.49545 | 133.45878 | 8993 ft | 294 kts | 137° |
| 2026-05-03 20:29 | -23.50973 | 133.47414 | 8711 ft | 289 kts | 137° |
| 2026-05-03 20:29 | -23.52401 | 133.48952 | 8266 ft | 288 kts | 136° |
| 2026-05-03 20:30 | -23.53845 | 133.50508 | 7806 ft | 288 kts | 136° |
| 2026-05-03 20:30 | -23.55247 | 133.52018 | 7431 ft | 287 kts | 136° |
| 2026-05-03 20:30 | -23.56664 | 133.53546 | 7160 ft | 286 kts | 136° |
| 2026-05-03 20:30 | -23.58079 | 133.55071 | 6909 ft | 286 kts | 136° |
| 2026-05-03 20:31 | -23.59491 | 133.56595 | 6650 ft | 285 kts | 135° |
| 2026-05-03 20:31 | -23.60902 | 133.58118 | 6374 ft | 285 kts | 135° |
| 2026-05-03 20:31 | -23.62302 | 133.59629 | 6130 ft | 283 kts | 135° |
| 2026-05-03 20:31 | -23.63688 | 133.61126 | 6023 ft | 276 kts | 135° |
| 2026-05-03 20:32 | -23.64599 | 133.62110 | 5926 ft | 272 kts | 135° |
| 2026-05-03 20:32 | -23.66350 | 133.64004 | 5783 ft | 263 kts | 134° |
| 2026-05-03 20:32 | -23.67123 | 133.65028 | 5733 ft | 256 kts | 122° |
| 2026-05-03 20:32 | -23.67984 | 133.66658 | 5753 ft | 240 kts | 119° |
| 2026-05-03 20:33 | -23.68794 | 133.68221 | 5559 ft | 232 kts | 119° |
| 2026-05-03 20:33 | -23.69568 | 133.69699 | 5480 ft | 217 kts | 121° |
| 2026-05-03 20:33 | -23.70308 | 133.71042 | 5440 ft | 205 kts | 122° |
| 2026-05-03 20:33 | -23.71053 | 133.72372 | 5305 ft | 206 kts | 122° |
| 2026-05-03 20:34 | -23.71777 | 133.73709 | 5056 ft | 201 kts | 122° |
| 2026-05-03 20:34 | -23.72470 | 133.75009 | 4777 ft | 195 kts | 121° |
| 2026-05-03 20:34 | -23.73130 | 133.76250 | 4523 ft | 183 kts | 121° |
| 2026-05-03 20:34 | -23.73761 | 133.77436 | 4282 ft | 178 kts | 121° |
| 2026-05-03 20:35 | -23.74371 | 133.78580 | 4045 ft | 170 kts | 121° |
| 2026-05-03 20:35 | -23.74942 | 133.79652 | 3864 ft | 155 kts | 120° |
| 2026-05-03 20:35 | -23.75465 | 133.80634 | 3629 ft | 143 kts | 120° |
| 2026-05-03 20:35 | -23.75943 | 133.81531 | 3501 ft | 135 kts | 120° |
| 2026-05-03 20:36 | -23.76427 | 133.82442 | 3290 ft | 142 kts | 120° |
| 2026-05-03 20:36 | -23.76929 | 133.83381 | 3092 ft | 142 kts | 120° |
| 2026-05-03 20:36 | -23.77427 | 133.84313 | 2877 ft | 141 kts | 120° |
| 2026-05-03 20:36 | -23.77915 | 133.85233 | 2679 ft | 141 kts | 120° |
| 2026-05-03 20:37 | -23.78411 | 133.86171 | 2473 ft | 146 kts | 120° |
| 2026-05-03 20:37 | -23.78925 | 133.87136 | 2268 ft | 148 kts | 120° |
| 2026-05-03 20:37 | -23.79432 | 133.88091 | 2090 ft | 142 kts | 121° |
| 2026-05-03 20:37 | -23.79938 | 133.89029 | 1889 ft | 144 kts | 120° |
| 2026-05-03 20:38 | -23.80436 | 133.89960 | 1782 ft | 133 kts | 120° |
| 2026-05-03 20:38 | -23.80825 | 133.90681 | 1778 ft | 88 kts | 121° |
| 2026-05-03 20:38 | -23.81058 | 133.91114 | 1779 ft | 44 kts | 120° |
| 2026-05-03 20:38 | -23.81152 | 133.91317 | 1781 ft | 24 kts | 101° |
| 2026-05-03 20:39 | -23.81207 | 133.91388 | 1779 ft | 13 kts | 211° |
| 2026-05-03 20:39 | -23.81186 | 133.91331 | 1778 ft | 15 kts | 315° |
| 2026-05-03 20:39 | -23.81112 | 133.91213 | 1780 ft | 22 kts | 300° |
| 2026-05-03 20:39 | -23.81035 | 133.91069 | 1779 ft | 22 kts | 300° |
| 2026-05-03 20:40 | -23.80959 | 133.90928 | 1778 ft | 21 kts | 300° |
| 2026-05-03 20:40 | -23.80886 | 133.90793 | 1779 ft | 20 kts | 300° |
| 2026-05-03 20:40 | -23.80814 | 133.90661 | 1779 ft | 20 kts | 301° |
| 2026-05-03 20:40 | -23.80746 | 133.90534 | 1779 ft | 19 kts | 300° |
| 2026-05-03 20:41 | -23.80679 | 133.90411 | 1780 ft | 19 kts | 300° |
| 2026-05-03 20:41 | -23.80619 | 133.90331 | 1781 ft | 13 kts | 336° |
| 2026-05-03 20:41 | -23.80547 | 133.90349 | 1781 ft | 8 kts | 28° |
| 2026-05-03 20:41 | -23.80497 | 133.90377 | 1781 ft | 8 kts | 17° |
| 2026-05-03 20:42 | -23.80454 | 133.90347 | 1781 ft | 8 kts | 301° |
| 2026-05-03 20:42 | -23.80426 | 133.90296 | 1781 ft | 8 kts | 301° |
| 2026-05-03 20:42 | -23.80397 | 133.90243 | 1781 ft | 11 kts | 300° |
| 2026-05-03 20:42 | -23.80345 | 133.90147 | 1782 ft | 16 kts | 300° |
| 2026-05-03 20:43 | -23.80292 | 133.90046 | 1782 ft | 15 kts | 300° |
| 2026-05-03 20:43 | -23.80240 | 133.89950 | 1781 ft | 14 kts | 300° |
| 2026-05-03 20:43 | -23.80200 | 133.89873 | 1782 ft | 11 kts | 299° |
| 2026-05-03 20:43 | -23.80158 | 133.89825 | 1783 ft | 8 kts | 357° |
| 2026-05-03 20:44 | -23.80107 | 133.89842 | 1783 ft | 8 kts | 8° |
| 2026-05-03 20:44 | -23.80070 | 133.89806 | 1783 ft | 7 kts | 302° |
| 2026-05-03 20:44 | -23.80044 | 133.89759 | 1783 ft | 7 kts | 300° |
| 2026-05-03 20:44 | -23.80015 | 133.89741 | 1783 ft | 5 kts | 17° |
| 2026-05-03 20:45 | -23.80002 | 133.89754 | 1782 ft | 4 kts | 76° |
| 2026-05-03 20:45 | -23.80019 | 133.89794 | 1783 ft | 6 kts | 120° |
| 2026-05-03 20:45 | -23.80020 | 133.89796 | 1783 ft | 0 kts | 120° |